createdAt,value
2018-08-04T00:01:37.446Z,44.15
2018-08-04T00:04:05.901Z,44.99
2018-08-04T00:06:35.581Z,45.02
2018-08-04T00:09:06.446Z,45.34
2018-08-04T00:11:34.807Z,44.43
2018-08-04T00:14:03.320Z,45.24
2018-08-04T00:16:31.684Z,45.01
2018-08-04T00:19:00.028Z,44.56
2018-08-04T00:21:28.370Z,44.97
2018-08-04T00:23:56.717Z,45.08
2018-08-04T00:26:29.225Z,44.55
2018-08-04T00:28:58.447Z,46.52
2018-08-04T00:31:26.980Z,44.89
2018-08-04T00:33:55.418Z,45.17
2018-08-04T00:36:23.797Z,45.16
2018-08-04T00:38:52.145Z,45.25
2018-08-04T00:41:21.775Z,45.05
2018-08-04T00:43:51.024Z,45.77
2018-08-04T00:46:22.373Z,46.43
2018-08-04T00:48:51.772Z,47.24
2018-08-04T00:51:21.128Z,45.99
2018-08-04T00:53:50.316Z,45.44
2018-08-04T00:56:20.543Z,45.29
2018-08-04T00:58:50.764Z,45.30
2018-08-04T01:01:19.136Z,45.72
2018-08-04T01:03:47.540Z,45.45
2018-08-04T01:06:15.924Z,46.00
2018-08-04T01:08:44.313Z,47.42
2018-08-04T01:11:12.720Z,46.62
2018-08-04T01:13:41.158Z,47.78
2018-08-04T01:16:09.614Z,46.44
2018-08-04T01:18:38.023Z,46.14
2018-08-04T01:21:06.400Z,47.33
2018-08-04T01:23:34.955Z,45.88
2018-08-04T01:26:03.364Z,47.52
2018-08-04T01:28:31.859Z,46.57
2018-08-04T01:31:00.334Z,46.99
2018-08-04T01:33:28.748Z,47.33
2018-08-04T01:35:57.192Z,45.97
2018-08-04T01:38:25.596Z,47.44
2018-08-04T01:40:53.986Z,46.82
2018-08-04T01:43:22.395Z,47.79
2018-08-04T01:45:50.803Z,46.85
2018-08-04T01:48:19.184Z,46.25
2018-08-04T01:50:47.622Z,48.64
2018-08-04T01:53:16.092Z,47.05
2018-08-04T01:55:44.496Z,46.45
2018-08-04T01:58:12.871Z,47.27
2018-08-04T02:00:41.249Z,47.05
2018-08-04T02:03:09.562Z,47.42
2018-08-04T02:05:37.939Z,47.52
2018-08-04T02:08:06.421Z,47.39
2018-08-04T02:10:34.796Z,48.72
2018-08-04T02:13:03.122Z,47.25
2018-08-04T02:15:31.555Z,49.01
2018-08-04T02:17:59.927Z,47.37
2018-08-04T02:20:28.261Z,47.04
2018-08-04T02:22:56.664Z,48.32
2018-08-04T02:25:25.040Z,47.25
2018-08-04T02:27:53.413Z,47.72
2018-08-04T02:30:21.760Z,48.47
2018-08-04T02:32:50.140Z,48.14
2018-08-04T02:35:18.522Z,47.54
2018-08-04T02:37:46.892Z,47.41
2018-08-04T02:40:15.277Z,48.32
2018-08-04T02:42:43.626Z,47.90
2018-08-04T02:45:11.969Z,47.81
2018-08-04T02:47:40.319Z,48.98
2018-08-04T02:50:09.269Z,48.03
2018-08-04T02:52:37.644Z,47.88
2018-08-04T02:55:06.201Z,47.41
2018-08-04T02:57:34.529Z,47.94
2018-08-04T03:00:02.890Z,47.67
2018-08-04T03:02:31.266Z,48.26
2018-08-04T03:04:59.639Z,48.08
2018-08-04T03:07:27.988Z,47.71
2018-08-04T03:09:56.336Z,48.31
2018-08-04T03:12:24.720Z,47.98
2018-08-04T03:14:53.346Z,47.66
2018-08-04T03:17:21.709Z,48.43
2018-08-04T03:19:50.104Z,48.63
2018-08-04T03:22:18.505Z,48.60
2018-08-04T03:24:46.882Z,47.94
2018-08-04T03:27:15.265Z,47.88
2018-08-04T03:29:43.634Z,48.33
2018-08-04T03:32:11.956Z,48.41
2018-08-04T03:34:40.421Z,48.16
2018-08-04T03:37:09.157Z,47.94
2018-08-04T03:39:37.713Z,48.50
2018-08-04T03:42:06.524Z,48.40
2018-08-04T03:44:35.188Z,48.31
2018-08-04T03:47:03.929Z,49.51
2018-08-04T03:49:32.518Z,49.40
2018-08-04T03:52:01.198Z,49.26
2018-08-04T03:54:30.020Z,49.50
2018-08-04T03:56:58.651Z,48.94
2018-08-04T03:59:27.226Z,49.09
2018-08-04T04:55:54.858Z,50.67
2018-08-04T04:58:24.252Z,50.08
2018-08-04T05:00:53.784Z,50.85
2018-08-04T05:03:23.676Z,50.11
2018-08-04T05:05:53.931Z,50.56
2018-08-04T05:08:23.757Z,49.97
2018-08-04T05:10:53.293Z,50.10
2018-08-04T05:13:22.812Z,50.00
2018-08-04T05:15:51.139Z,49.49
2018-08-04T05:18:19.521Z,49.89
2018-08-04T05:20:47.899Z,49.56
2018-08-04T05:23:16.303Z,49.26
2018-08-04T05:25:44.784Z,49.30
2018-08-04T05:28:13.140Z,49.45
2018-08-04T05:30:41.560Z,49.29
2018-08-04T05:33:09.910Z,49.34
2018-08-04T05:35:38.344Z,49.07
2018-08-04T05:38:06.728Z,48.92
2018-08-04T05:40:35.105Z,48.86
2018-08-04T05:43:03.485Z,48.58
2018-08-04T05:45:31.898Z,48.49
2018-08-04T05:48:00.329Z,48.62
2018-08-04T05:50:28.768Z,48.17
2018-08-04T05:52:57.147Z,48.10
2018-08-04T05:55:25.499Z,48.45
2018-08-04T05:57:53.869Z,48.01
2018-08-04T06:00:22.246Z,47.58
2018-08-04T06:02:50.617Z,48.43
2018-08-04T06:05:19.008Z,47.99
2018-08-04T06:07:47.380Z,47.80
2018-08-04T06:10:15.754Z,47.76
2018-08-04T06:12:44.078Z,48.01
2018-08-04T06:15:12.483Z,48.17
2018-08-04T06:17:40.829Z,47.61
2018-08-04T06:20:09.226Z,46.07
2018-08-04T06:22:37.575Z,45.98
2018-08-04T06:25:05.940Z,45.73
2018-08-04T06:27:34.321Z,45.70
2018-08-04T06:30:02.729Z,45.37
2018-08-04T06:32:31.090Z,45.89
2018-08-04T06:34:59.484Z,44.83
2018-08-04T06:37:27.864Z,43.84
2018-08-04T06:39:56.411Z,45.83
2018-08-04T06:42:24.790Z,46.15
2018-08-04T06:44:53.123Z,45.49
2018-08-04T06:47:21.467Z,43.13
2018-08-04T06:49:49.877Z,44.11
2018-08-04T06:52:18.260Z,45.35
2018-08-04T06:54:46.577Z,45.19
2018-08-04T06:57:14.928Z,44.36
2018-08-04T06:59:43.288Z,44.03
2018-08-04T07:02:11.613Z,43.74
2018-08-04T07:04:39.948Z,43.59
2018-08-04T07:07:08.616Z,39.95
2018-08-04T07:09:37.010Z,42.04
2018-08-04T07:12:05.654Z,38.96
2018-08-04T07:14:34.021Z,40.61
2018-08-04T07:17:02.464Z,40.69
2018-08-04T07:19:30.833Z,39.92
2018-08-04T07:21:59.161Z,39.83
2018-08-04T07:24:27.490Z,36.96
2018-08-04T07:26:55.852Z,38.70
2018-08-04T07:29:24.307Z,35.44
2018-08-04T07:31:52.639Z,37.45
2018-08-04T07:34:21.010Z,37.07
2018-08-04T07:36:49.331Z,37.57
2018-08-04T07:39:17.763Z,36.91
2018-08-04T07:41:46.113Z,35.83
2018-08-04T07:44:14.494Z,35.89
2018-08-04T07:46:42.875Z,33.53
2018-08-04T07:49:11.396Z,34.48
2018-08-04T07:51:39.680Z,33.34
2018-08-04T07:54:08.145Z,30.95
2018-08-04T07:56:36.520Z,30.00
2018-08-04T07:59:04.898Z,30.23
2018-08-04T08:01:33.276Z,27.25
2018-08-04T08:04:01.634Z,29.14
2018-08-04T08:06:29.960Z,29.11
2018-08-04T08:08:58.342Z,28.30
2018-08-04T08:11:26.769Z,29.35
2018-08-04T08:13:55.193Z,27.85
2018-08-04T08:16:23.520Z,27.58
2018-08-04T08:18:51.876Z,28.88
2018-08-04T08:21:20.204Z,25.31
2018-08-04T08:23:48.527Z,25.95
2018-08-04T08:26:16.843Z,26.41
2018-08-04T08:28:45.186Z,25.82
2018-08-04T08:31:13.596Z,25.64
2018-08-04T08:33:41.907Z,25.41
2018-08-04T08:36:10.758Z,25.27
2018-08-04T08:38:39.092Z,25.24
2018-08-04T08:41:07.432Z,24.03
2018-08-04T08:43:35.772Z,23.77
2018-08-04T08:46:04.092Z,22.71
2018-08-04T08:48:32.424Z,23.84
2018-08-04T08:51:00.763Z,24.22
2018-08-04T08:53:29.332Z,24.82
2018-08-04T08:55:57.532Z,22.88
2018-08-04T08:58:25.897Z,23.06
2018-08-04T09:00:54.216Z,24.40
2018-08-04T09:03:22.586Z,23.95
2018-08-04T09:05:50.904Z,24.23
2018-08-04T09:08:19.231Z,23.33
2018-08-04T09:10:47.547Z,23.12
2018-08-04T09:13:15.902Z,23.36
2018-08-04T09:15:44.279Z,23.21
2018-08-04T09:18:12.591Z,21.51
2018-08-04T09:20:40.911Z,22.07
2018-08-04T09:23:09.350Z,21.06
2018-08-04T09:25:37.650Z,20.70
2018-08-04T09:28:06.004Z,21.18
2018-08-04T09:30:34.376Z,21.28
2018-08-04T09:33:02.711Z,20.48
2018-08-04T09:35:31.053Z,20.60
2018-08-04T09:37:59.386Z,20.11
2018-08-04T09:40:27.744Z,20.57
2018-08-04T09:42:56.089Z,20.75
2018-08-04T09:45:24.428Z,20.78
2018-08-04T09:47:52.797Z,19.16
2018-08-04T09:50:21.151Z,19.32
2018-08-04T09:52:49.483Z,19.68
2018-08-04T09:55:17.818Z,19.49
2018-08-04T09:57:46.142Z,19.55
2018-08-04T10:00:19.767Z,18.45
2018-08-04T10:02:48.120Z,18.74
2018-08-04T10:05:16.566Z,18.48
2018-08-04T10:07:44.872Z,18.64
2018-08-04T10:10:13.199Z,18.18
2018-08-04T10:12:41.535Z,17.99
2018-08-04T10:15:11.136Z,19.11
2018-08-04T10:17:39.909Z,18.98
2018-08-04T10:20:09.880Z,19.38
2018-08-04T10:22:38.537Z,19.46
2018-08-04T10:25:07.612Z,19.18
2018-08-04T10:27:36.052Z,19.48
2018-08-04T10:30:06.913Z,19.43
2018-08-04T10:32:35.527Z,19.55
2018-08-04T10:35:04.180Z,19.72
2018-08-04T10:37:32.592Z,20.27
2018-08-04T10:40:01.658Z,19.78
2018-08-04T10:42:30.010Z,20.26
2018-08-04T10:44:58.348Z,19.78
2018-08-04T10:47:26.693Z,20.15
2018-08-04T10:49:55.049Z,20.30
2018-08-04T10:52:24.367Z,21.05
2018-08-04T10:54:52.764Z,20.43
2018-08-04T10:57:21.350Z,20.64
2018-08-04T10:59:53.521Z,23.60
2018-08-04T11:02:23.128Z,24.05
2018-08-04T11:04:51.563Z,22.87
2018-08-04T11:07:20.016Z,24.10
2018-08-04T11:09:48.482Z,24.80
2018-08-04T11:12:16.804Z,27.26
2018-08-04T11:14:45.131Z,26.97
2018-08-04T11:17:13.485Z,26.86
2018-08-04T11:19:41.898Z,26.81
2018-08-04T11:22:10.216Z,26.54
2018-08-04T11:24:38.586Z,27.35
2018-08-04T11:27:06.917Z,27.33
2018-08-04T11:29:35.231Z,28.68
2018-08-04T11:32:03.555Z,28.02
2018-08-04T11:34:31.856Z,28.40
2018-08-04T11:37:00.195Z,29.72
2018-08-04T11:39:28.628Z,31.13
2018-08-04T11:41:56.955Z,30.75
2018-08-04T11:44:25.255Z,30.37
2018-08-04T11:46:53.789Z,30.87
2018-08-04T11:49:22.396Z,30.26
2018-08-04T11:51:51.503Z,30.40
2018-08-04T11:54:20.050Z,31.15
2018-08-04T11:56:48.556Z,29.88
2018-08-04T11:59:16.926Z,29.66
2018-08-04T12:01:45.331Z,30.40
2018-08-04T12:04:13.680Z,29.59
2018-08-04T12:06:42.164Z,30.39
2018-08-04T12:10:39.756Z,30.56
2018-08-04T12:13:08.080Z,30.72
2018-08-04T12:15:37.338Z,31.50
2018-08-04T12:18:05.962Z,32.08
2018-08-04T12:20:34.302Z,32.24
2018-08-04T12:23:02.627Z,33.83
2018-08-04T12:25:31.097Z,33.81
2018-08-04T12:27:59.384Z,34.40
2018-08-04T12:30:27.717Z,35.72
2018-08-04T12:32:56.914Z,34.25
2018-08-04T12:35:25.324Z,33.26
2018-08-04T12:37:53.717Z,33.28
2018-08-04T12:40:22.075Z,33.56
2018-08-04T12:42:50.413Z,34.74
2018-08-04T12:45:18.771Z,32.73
2018-08-04T12:47:47.121Z,33.76
2018-08-04T12:50:15.948Z,35.20
2018-08-04T12:52:44.269Z,33.42
2018-08-04T12:55:12.630Z,35.19
2018-08-04T12:57:40.989Z,34.49
2018-08-04T13:00:09.623Z,35.18
2018-08-04T13:02:38.326Z,34.35
2018-08-04T13:05:07.099Z,34.19
2018-08-04T13:07:35.511Z,33.88
2018-08-04T13:10:03.927Z,34.06
2018-08-04T13:12:32.274Z,34.13
2018-08-04T13:15:00.772Z,33.40
2018-08-04T13:17:29.244Z,33.75
2018-08-04T13:19:57.591Z,33.96
2018-08-04T13:22:25.947Z,33.18
2018-08-04T13:24:54.286Z,33.02
2018-08-04T13:27:22.705Z,33.94
2018-08-04T13:29:51.069Z,34.88
2018-08-04T13:32:19.544Z,33.80
2018-08-04T13:34:47.889Z,33.66
2018-08-04T13:37:16.333Z,34.48
2018-08-04T13:39:44.687Z,33.95
2018-08-04T13:42:13.186Z,34.08
2018-08-04T13:44:41.642Z,34.30
2018-08-04T13:47:10.021Z,34.15
2018-08-04T13:49:38.369Z,34.38
2018-08-04T13:52:06.817Z,34.15
2018-08-04T13:54:35.272Z,34.11
2018-08-04T13:57:03.626Z,34.12
2018-08-04T13:59:32.122Z,34.24
2018-08-04T14:02:01.910Z,34.01
2018-08-04T14:04:30.345Z,36.59
2018-08-04T14:06:58.794Z,35.41
2018-08-04T14:09:27.142Z,35.71
2018-08-04T14:11:55.523Z,35.49
2018-08-04T14:14:23.868Z,35.34
2018-08-04T14:16:52.246Z,35.74
2018-08-04T14:19:20.662Z,36.01
2018-08-04T14:21:49.016Z,35.48
2018-08-04T14:24:17.415Z,36.74
2018-08-04T14:26:46.849Z,36.77
2018-08-04T14:29:15.198Z,36.24
2018-08-04T14:31:43.576Z,36.78
2018-08-04T14:34:11.974Z,37.37
2018-08-04T14:36:40.339Z,37.22
2018-08-04T14:39:11.249Z,36.58
2018-08-04T14:41:39.628Z,36.77
2018-08-04T14:44:08.037Z,37.44
2018-08-04T14:46:36.993Z,37.39
2018-08-04T14:49:05.437Z,38.22
2018-08-04T14:51:33.781Z,38.62
2018-08-04T14:54:02.217Z,39.31
2018-08-04T14:56:30.608Z,40.04
2018-08-04T14:58:58.993Z,39.37
2018-08-04T15:01:27.332Z,38.69
2018-08-04T15:03:55.705Z,39.82
2018-08-04T15:06:24.091Z,39.06
2018-08-04T15:08:52.978Z,38.34
2018-08-04T15:11:21.355Z,39.15
2018-08-04T15:13:49.707Z,38.23
2018-08-04T15:16:18.115Z,38.44
2018-08-04T15:18:46.482Z,38.56
2018-08-04T15:21:14.841Z,37.43
2018-08-04T15:23:43.193Z,38.25
2018-08-04T15:26:11.573Z,38.09
2018-08-04T15:28:39.951Z,37.95
2018-08-04T15:31:08.288Z,38.44
2018-08-04T15:33:36.667Z,38.77
2018-08-04T15:36:05.354Z,38.76
2018-08-04T15:38:33.730Z,39.12
2018-08-04T15:41:02.084Z,38.89
2018-08-04T15:43:30.460Z,38.92
2018-08-04T15:45:58.833Z,38.75
2018-08-04T15:48:27.180Z,39.16
2018-08-04T15:50:55.522Z,39.24
2018-08-04T15:53:23.940Z,41.76
2018-08-04T15:55:53.243Z,40.93
2018-08-04T15:58:21.652Z,41.23
2018-08-04T16:00:50.002Z,41.81
2018-08-04T16:03:18.511Z,41.69
2018-08-04T16:05:46.870Z,41.50
2018-08-04T16:08:15.241Z,41.07
2018-08-04T16:10:43.577Z,40.88
2018-08-04T16:13:11.943Z,40.93
2018-08-04T16:15:40.335Z,40.88
2018-08-04T16:18:08.715Z,41.70
2018-08-04T16:20:37.093Z,41.38
2018-08-04T16:23:05.516Z,41.90
2018-08-04T16:25:33.878Z,41.61
2018-08-04T16:28:02.230Z,41.40
2018-08-04T16:30:30.579Z,41.72
2018-08-04T16:32:58.928Z,41.81
2018-08-04T16:35:27.303Z,41.09
2018-08-04T16:37:55.720Z,41.25
2018-08-04T16:40:24.330Z,41.48
2018-08-04T16:42:52.708Z,41.20
2018-08-04T16:45:21.098Z,41.34
2018-08-04T16:47:49.467Z,41.78
2018-08-04T16:50:17.932Z,42.20
2018-08-04T16:52:46.286Z,42.25
2018-08-04T16:55:14.644Z,42.74
2018-08-04T16:57:43.978Z,41.78
2018-08-04T17:00:12.336Z,43.02
2018-08-04T17:02:40.764Z,42.03
2018-08-04T17:05:09.493Z,42.33
2018-08-04T17:07:38.463Z,42.06
2018-08-04T17:10:06.851Z,42.59
2018-08-04T17:12:35.239Z,42.14
2018-08-04T17:15:03.826Z,43.01
2018-08-04T17:17:32.235Z,42.96
2018-08-04T17:20:00.592Z,42.28
2018-08-04T17:22:28.970Z,42.17
2018-08-04T17:24:57.406Z,42.17
2018-08-04T17:27:25.924Z,42.95
2018-08-04T17:29:54.305Z,42.16
2018-08-04T17:32:22.690Z,42.83
2018-08-04T17:34:51.090Z,44.64
2018-08-04T17:37:19.482Z,42.56
2018-08-04T17:39:47.853Z,42.70
2018-08-04T17:42:16.235Z,43.87
2018-08-04T17:44:44.579Z,43.40
2018-08-04T17:47:12.953Z,43.22
2018-08-04T17:49:41.339Z,43.57
2018-08-04T17:52:09.678Z,43.45
2018-08-04T17:54:38.092Z,43.57
2018-08-04T17:57:06.717Z,43.51
2018-08-04T17:59:35.082Z,43.08
2018-08-04T18:02:03.431Z,43.62
2018-08-04T18:04:31.785Z,43.58
2018-08-04T18:07:00.190Z,43.89
2018-08-04T18:09:28.605Z,43.63
2018-08-04T18:11:56.954Z,43.79
2018-08-04T18:14:25.327Z,43.81
2018-08-04T18:16:53.668Z,44.36
2018-08-04T18:19:22.155Z,44.11
2018-08-04T18:21:50.496Z,44.84
2018-08-04T18:24:18.845Z,44.46
2018-08-04T18:26:47.306Z,44.88
2018-08-04T18:29:15.666Z,44.11
2018-08-04T18:31:44.080Z,44.23
2018-08-04T18:34:12.418Z,44.49
2018-08-04T18:36:40.750Z,44.91
2018-08-04T18:39:09.808Z,45.93
2018-08-04T18:41:38.311Z,45.71
2018-08-04T18:44:06.656Z,44.89
2018-08-04T18:46:35.034Z,44.97
2018-08-04T18:49:03.352Z,45.39
2018-08-04T18:51:31.675Z,45.65
2018-08-04T18:54:00.004Z,45.53
2018-08-04T18:56:28.332Z,45.56
2018-08-04T18:58:56.654Z,46.49
2018-08-04T19:01:25.005Z,45.65
2018-08-04T19:03:53.323Z,46.08
2018-08-04T19:06:21.642Z,45.78
2018-08-04T19:08:50.052Z,45.84
2018-08-04T19:11:18.372Z,45.60
2018-08-04T19:13:46.688Z,45.98
2018-08-04T19:16:15.061Z,47.14
2018-08-04T19:18:43.407Z,45.73
2018-08-04T19:21:11.784Z,46.11
2018-08-04T19:23:40.115Z,46.55
2018-08-04T19:26:08.438Z,45.86
2018-08-04T19:28:36.826Z,45.55
2018-08-04T19:31:05.252Z,45.18
2018-08-04T19:33:33.588Z,45.30
2018-08-04T19:36:01.936Z,46.09
2018-08-04T19:38:30.276Z,45.23
2018-08-04T19:40:58.620Z,45.75
2018-08-04T19:43:26.958Z,46.76
2018-08-04T19:45:55.353Z,46.77
2018-08-04T19:48:23.763Z,49.09
2018-08-04T19:50:52.419Z,48.57
2018-08-04T19:53:20.795Z,50.08
2018-08-04T19:55:49.114Z,51.20
2018-08-04T19:58:17.443Z,51.41
2018-08-04T20:00:45.789Z,51.59
2018-08-04T20:03:14.102Z,51.66
2018-08-04T20:05:42.435Z,52.49
2018-08-04T20:08:10.809Z,53.34
2018-08-04T20:10:39.206Z,53.36
2018-08-04T20:13:07.534Z,53.86
2018-08-04T20:15:35.888Z,53.93
2018-08-04T20:18:04.268Z,52.74
2018-08-04T20:20:33.157Z,53.01
2018-08-04T20:23:01.509Z,54.39
2018-08-04T20:25:29.878Z,54.96
2018-08-04T20:27:58.222Z,53.78
2018-08-04T20:30:26.597Z,53.31
2018-08-04T20:32:55.046Z,54.24
2018-08-04T20:35:23.407Z,54.17
2018-08-04T20:37:51.733Z,55.99
2018-08-04T20:40:20.231Z,54.20
2018-08-04T20:42:48.563Z,55.04
2018-08-04T20:45:16.902Z,54.90
2018-08-04T20:47:45.221Z,55.28
2018-08-04T20:50:13.603Z,54.56
2018-08-04T20:52:41.980Z,54.98
2018-08-04T20:55:10.363Z,54.83
2018-08-04T20:57:38.814Z,54.91
2018-08-04T21:00:07.219Z,55.16
2018-08-04T21:02:35.596Z,55.32
2018-08-04T21:05:04.051Z,55.74
2018-08-04T21:07:32.391Z,56.05
2018-08-04T21:10:00.721Z,55.20
2018-08-04T21:12:29.049Z,56.08
2018-08-04T21:14:57.420Z,55.28
2018-08-04T21:17:25.800Z,55.41
2018-08-04T21:19:54.155Z,57.10
2018-08-04T21:22:22.480Z,55.27
2018-08-04T21:24:50.799Z,55.42
2018-08-04T21:27:19.106Z,55.74
2018-08-04T21:29:47.434Z,55.51
2018-08-04T21:32:15.751Z,55.56
2018-08-04T21:34:44.089Z,56.10
2018-08-04T21:37:12.465Z,56.43
2018-08-04T21:39:40.799Z,57.83
2018-08-04T21:42:09.106Z,55.77
2018-08-04T21:44:37.539Z,55.69
2018-08-04T21:47:05.913Z,55.26
2018-08-04T21:49:34.311Z,55.83
2018-08-04T21:52:02.639Z,55.39
2018-08-04T21:54:30.991Z,56.03
2018-08-04T21:56:59.428Z,55.62
2018-08-04T21:59:27.755Z,56.56
2018-08-04T22:01:57.267Z,55.44
2018-08-04T22:04:26.197Z,56.23
2018-08-04T22:08:04.717Z,55.83
2018-08-04T22:10:33.164Z,55.49
2018-08-04T22:13:01.675Z,56.26
2018-08-04T22:15:30.026Z,56.46
2018-08-04T22:17:58.385Z,57.16
2018-08-04T22:20:27.338Z,56.16
2018-08-04T22:22:55.653Z,56.16
2018-08-04T22:25:25.333Z,56.36
2018-08-04T22:27:54.031Z,57.03
2018-08-04T22:30:22.910Z,56.52
2018-08-04T22:32:51.694Z,57.57
2018-08-04T22:35:20.329Z,57.40
2018-08-04T22:37:48.802Z,57.22
2018-08-04T22:40:18.180Z,57.32
2018-08-04T22:42:46.633Z,57.28
2018-08-04T22:45:59.246Z,57.39
2018-08-04T22:48:27.708Z,56.96
2018-08-04T22:50:56.188Z,57.59
2018-08-04T22:53:24.740Z,58.01
2018-08-04T22:55:53.389Z,58.31
2018-08-04T22:58:21.964Z,58.26
2018-08-04T23:00:50.372Z,57.73
2018-08-04T23:03:18.773Z,57.50
2018-08-04T23:05:47.196Z,57.17
2018-08-04T23:08:15.688Z,58.84
2018-08-04T23:10:44.616Z,58.11
2018-08-04T23:13:13.465Z,58.03
2018-08-04T23:15:41.807Z,58.78
2018-08-04T23:18:10.430Z,57.95
2018-08-04T23:20:38.912Z,58.44
2018-08-04T23:23:08.142Z,58.07
2018-08-04T23:25:36.636Z,58.32
2018-08-04T23:28:04.972Z,57.98
2018-08-04T23:30:33.343Z,57.84
2018-08-04T23:33:01.691Z,59.17
2018-08-04T23:35:30.084Z,58.69
2018-08-04T23:37:58.417Z,59.30
2018-08-04T23:40:26.890Z,60.14
2018-08-04T23:42:55.225Z,60.02
2018-08-04T23:45:23.582Z,60.43
2018-08-04T23:47:52.009Z,60.46
2018-08-04T23:50:20.374Z,60.77
2018-08-04T23:52:48.659Z,61.40
2018-08-04T23:55:17.016Z,61.65
2018-08-04T23:57:45.495Z,62.81
